sensor_id;sensor_type;location;lat;lon;timestamp;P1;durP1;ratioP1;P2;durP2;ratioP2
4742;SDS011;24293;48.154;7.748;2022-10-16T00:02:24;6.00;;;3.20;;
4742;SDS011;24293;48.154;7.748;2022-10-16T00:04:50;6.93;;;3.00;;
4742;SDS011;24293;48.154;7.748;2022-10-16T00:07:16;10.00;;;3.40;;
4742;SDS011;24293;48.154;7.748;2022-10-16T00:09:43;14.23;;;2.57;;
4742;SDS011;24293;48.154;7.748;2022-10-16T00:12:11;5.13;;;2.73;;
4742;SDS011;24293;48.154;7.748;2022-10-16T00:14:37;8.80;;;3.00;;
4742;SDS011;24293;48.154;7.748;2022-10-16T00:17:06;4.30;;;2.70;;
4742;SDS011;24293;48.154;7.748;2022-10-16T00:19:32;6.80;;;3.30;;
4742;SDS011;24293;48.154;7.748;2022-10-16T00:21:58;6.20;;;2.70;;
4742;SDS011;24293;48.154;7.748;2022-10-16T00:24:25;7.17;;;3.07;;
4742;SDS011;24293;48.154;7.748;2022-10-16T00:26:51;4.63;;;2.67;;
4742;SDS011;24293;48.154;7.748;2022-10-16T00:29:22;5.03;;;2.60;;
4742;SDS011;24293;48.154;7.748;2022-10-16T00:31:48;9.93;;;3.00;;
4742;SDS011;24293;48.154;7.748;2022-10-16T00:34:15;3.40;;;2.50;;
4742;SDS011;24293;48.154;7.748;2022-10-16T00:36:41;7.30;;;4.23;;
4742;SDS011;24293;48.154;7.748;2022-10-16T00:39:08;4.70;;;2.87;;
4742;SDS011;24293;48.154;7.748;2022-10-16T00:41:34;4.40;;;2.80;;
4742;SDS011;24293;48.154;7.748;2022-10-16T00:44:01;3.87;;;2.53;;
4742;SDS011;24293;48.154;7.748;2022-10-16T00:46:31;7.47;;;2.40;;
4742;SDS011;24293;48.154;7.748;2022-10-16T00:48:59;4.40;;;2.97;;
4742;SDS011;24293;48.154;7.748;2022-10-16T00:51:31;3.90;;;2.90;;
4742;SDS011;24293;48.154;7.748;2022-10-16T00:53:58;6.50;;;2.80;;
4742;SDS011;24293;48.154;7.748;2022-10-16T00:56:25;7.40;;;2.77;;
4742;SDS011;24293;48.154;7.748;2022-10-16T00:58:52;3.83;;;2.47;;
4742;SDS011;24293;48.154;7.748;2022-10-16T01:01:18;13.17;;;2.50;;
4742;SDS011;24293;48.154;7.748;2022-10-16T01:03:46;4.23;;;2.43;;
4742;SDS011;24293;48.154;7.748;2022-10-16T01:06:21;3.17;;;2.27;;
4742;SDS011;24293;48.154;7.748;2022-10-16T01:08:52;4.30;;;2.53;;
4742;SDS011;24293;48.154;7.748;2022-10-16T01:11:22;8.80;;;2.83;;
4742;SDS011;24293;48.154;7.748;2022-10-16T01:13:52;3.93;;;2.40;;
4742;SDS011;24293;48.154;7.748;2022-10-16T01:16:21;3.73;;;2.10;;
4742;SDS011;24293;48.154;7.748;2022-10-16T01:18:53;5.30;;;2.80;;
4742;SDS011;24293;48.154;7.748;2022-10-16T01:21:22;3.93;;;3.07;;
4742;SDS011;24293;48.154;7.748;2022-10-16T01:23:51;4.23;;;3.00;;
4742;SDS011;24293;48.154;7.748;2022-10-16T01:26:28;9.10;;;2.73;;
4742;SDS011;24293;48.154;7.748;2022-10-16T01:28:59;9.60;;;2.77;;
4742;SDS011;24293;48.154;7.748;2022-10-16T01:31:29;8.17;;;3.30;;
4742;SDS011;24293;48.154;7.748;2022-10-16T01:33:59;6.33;;;2.73;;
4742;SDS011;24293;48.154;7.748;2022-10-16T01:36:28;6.57;;;3.53;;
4742;SDS011;24293;48.154;7.748;2022-10-16T01:38:58;6.70;;;2.87;;
4742;SDS011;24293;48.154;7.748;2022-10-16T01:41:34;4.40;;;2.83;;
4742;SDS011;24293;48.154;7.748;2022-10-16T01:44:05;6.43;;;3.70;;
4742;SDS011;24293;48.154;7.748;2022-10-16T01:46:31;7.93;;;3.23;;
4742;SDS011;24293;48.154;7.748;2022-10-16T01:48:59;5.97;;;3.17;;
4742;SDS011;24293;48.154;7.748;2022-10-16T01:51:26;4.90;;;2.93;;
4742;SDS011;24293;48.154;7.748;2022-10-16T01:53:54;4.10;;;2.77;;
4742;SDS011;24293;48.154;7.748;2022-10-16T01:56:22;8.13;;;3.33;;
4742;SDS011;24293;48.154;7.748;2022-10-16T01:58:49;6.07;;;3.10;;
4742;SDS011;24293;48.154;7.748;2022-10-16T02:01:19;6.07;;;2.57;;
4742;SDS011;24293;48.154;7.748;2022-10-16T02:03:46;5.40;;;3.60;;
4742;SDS011;24293;48.154;7.748;2022-10-16T02:06:16;6.00;;;3.20;;
4742;SDS011;24293;48.154;7.748;2022-10-16T02:08:42;3.70;;;2.80;;
4742;SDS011;24293;48.154;7.748;2022-10-16T02:11:09;6.23;;;3.23;;
4742;SDS011;24293;48.154;7.748;2022-10-16T02:13:37;4.30;;;2.90;;
4742;SDS011;24293;48.154;7.748;2022-10-16T02:16:05;4.90;;;3.47;;
4742;SDS011;24293;48.154;7.748;2022-10-16T02:18:33;6.00;;;2.87;;
4742;SDS011;24293;48.154;7.748;2022-10-16T02:21:00;8.07;;;3.20;;
4742;SDS011;24293;48.154;7.748;2022-10-16T02:23:29;5.20;;;3.20;;
4742;SDS011;24293;48.154;7.748;2022-10-16T02:26:00;4.67;;;2.67;;
4742;SDS011;24293;48.154;7.748;2022-10-16T02:28:30;7.33;;;3.23;;
4742;SDS011;24293;48.154;7.748;2022-10-16T02:30:59;7.33;;;3.33;;
4742;SDS011;24293;48.154;7.748;2022-10-16T02:33:27;4.80;;;2.87;;
4742;SDS011;24293;48.154;7.748;2022-10-16T02:35:57;6.17;;;3.90;;
4742;SDS011;24293;48.154;7.748;2022-10-16T02:38:24;10.87;;;3.10;;
4742;SDS011;24293;48.154;7.748;2022-10-16T02:40:51;6.63;;;2.83;;
4742;SDS011;24293;48.154;7.748;2022-10-16T02:43:18;6.60;;;2.90;;
4742;SDS011;24293;48.154;7.748;2022-10-16T02:45:45;6.40;;;2.93;;
4742;SDS011;24293;48.154;7.748;2022-10-16T02:48:11;7.27;;;3.10;;
4742;SDS011;24293;48.154;7.748;2022-10-16T02:50:38;9.63;;;2.97;;
4742;SDS011;24293;48.154;7.748;2022-10-16T02:53:06;5.90;;;3.50;;
4742;SDS011;24293;48.154;7.748;2022-10-16T02:55:32;4.77;;;3.13;;
4742;SDS011;24293;48.154;7.748;2022-10-16T02:57:59;6.03;;;3.37;;
4742;SDS011;24293;48.154;7.748;2022-10-16T03:00:25;4.00;;;2.53;;
4742;SDS011;24293;48.154;7.748;2022-10-16T03:02:51;6.50;;;2.80;;
4742;SDS011;24293;48.154;7.748;2022-10-16T03:05:18;21.20;;;3.23;;
4742;SDS011;24293;48.154;7.748;2022-10-16T03:07:44;7.00;;;3.03;;
4742;SDS011;24293;48.154;7.748;2022-10-16T03:10:13;5.20;;;3.13;;
4742;SDS011;24293;48.154;7.748;2022-10-16T03:12:39;5.40;;;3.00;;
4742;SDS011;24293;48.154;7.748;2022-10-16T03:15:06;6.83;;;3.40;;
4742;SDS011;24293;48.154;7.748;2022-10-16T03:17:33;14.23;;;3.10;;
4742;SDS011;24293;48.154;7.748;2022-10-16T03:19:59;6.00;;;3.20;;
4742;SDS011;24293;48.154;7.748;2022-10-16T03:22:26;6.80;;;2.70;;
4742;SDS011;24293;48.154;7.748;2022-10-16T03:24:52;7.23;;;3.00;;
4742;SDS011;24293;48.154;7.748;2022-10-16T03:27:20;6.37;;;2.50;;
4742;SDS011;24293;48.154;7.748;2022-10-16T03:29:47;9.50;;;2.90;;
4742;SDS011;24293;48.154;7.748;2022-10-16T03:32:13;8.70;;;2.70;;
4742;SDS011;24293;48.154;7.748;2022-10-16T03:34:40;7.83;;;2.37;;
4742;SDS011;24293;48.154;7.748;2022-10-16T03:37:06;5.47;;;3.50;;
4742;SDS011;24293;48.154;7.748;2022-10-16T03:39:33;5.30;;;2.83;;
4742;SDS011;24293;48.154;7.748;2022-10-16T03:41:59;3.60;;;2.37;;
4742;SDS011;24293;48.154;7.748;2022-10-16T03:44:27;6.03;;;2.90;;
4742;SDS011;24293;48.154;7.748;2022-10-16T03:46:54;5.70;;;2.60;;
4742;SDS011;24293;48.154;7.748;2022-10-16T03:49:20;4.57;;;2.70;;
4742;SDS011;24293;48.154;7.748;2022-10-16T03:51:46;4.57;;;2.80;;
4742;SDS011;24293;48.154;7.748;2022-10-16T03:54:13;5.47;;;2.83;;
4742;SDS011;24293;48.154;7.748;2022-10-16T03:56:39;5.73;;;2.90;;
4742;SDS011;24293;48.154;7.748;2022-10-16T03:59:09;4.87;;;2.83;;
4742;SDS011;24293;48.154;7.748;2022-10-16T04:01:37;8.57;;;2.90;;
4742;SDS011;24293;48.154;7.748;2022-10-16T04:04:03;5.27;;;3.00;;
4742;SDS011;24293;48.154;7.748;2022-10-16T04:06:29;7.40;;;2.43;;
4742;SDS011;24293;48.154;7.748;2022-10-16T04:08:56;5.20;;;2.93;;
4742;SDS011;24293;48.154;7.748;2022-10-16T04:11:22;5.03;;;2.57;;
4742;SDS011;24293;48.154;7.748;2022-10-16T04:13:49;12.70;;;2.73;;
4742;SDS011;24293;48.154;7.748;2022-10-16T04:16:15;5.30;;;3.50;;
4742;SDS011;24293;48.154;7.748;2022-10-16T04:18:43;6.13;;;2.93;;
4742;SDS011;24293;48.154;7.748;2022-10-16T04:21:09;8.13;;;2.97;;
4742;SDS011;24293;48.154;7.748;2022-10-16T04:23:36;7.13;;;2.53;;
4742;SDS011;24293;48.154;7.748;2022-10-16T04:26:02;4.67;;;2.60;;
4742;SDS011;24293;48.154;7.748;2022-10-16T04:28:29;9.70;;;2.90;;
4742;SDS011;24293;48.154;7.748;2022-10-16T04:30:55;5.90;;;3.27;;
4742;SDS011;24293;48.154;7.748;2022-10-16T04:33:22;5.70;;;3.20;;
4742;SDS011;24293;48.154;7.748;2022-10-16T04:35:55;7.93;;;3.60;;
4742;SDS011;24293;48.154;7.748;2022-10-16T04:38:22;4.87;;;2.70;;
4742;SDS011;24293;48.154;7.748;2022-10-16T04:40:48;4.80;;;3.00;;
4742;SDS011;24293;48.154;7.748;2022-10-16T04:43:15;5.00;;;3.40;;
4742;SDS011;24293;48.154;7.748;2022-10-16T04:45:41;9.80;;;3.53;;
4742;SDS011;24293;48.154;7.748;2022-10-16T04:48:07;6.30;;;3.13;;
4742;SDS011;24293;48.154;7.748;2022-10-16T04:50:34;14.80;;;3.33;;
4742;SDS011;24293;48.154;7.748;2022-10-16T04:53:05;7.27;;;3.30;;
4742;SDS011;24293;48.154;7.748;2022-10-16T04:55:32;7.10;;;2.90;;
4742;SDS011;24293;48.154;7.748;2022-10-16T04:57:58;3.70;;;3.30;;
4742;SDS011;24293;48.154;7.748;2022-10-16T05:00:25;10.80;;;2.90;;
4742;SDS011;24293;48.154;7.748;2022-10-16T05:02:51;7.00;;;3.20;;
4742;SDS011;24293;48.154;7.748;2022-10-16T05:05:18;12.80;;;2.97;;
4742;SDS011;24293;48.154;7.748;2022-10-16T05:07:44;4.70;;;2.60;;
4742;SDS011;24293;48.154;7.748;2022-10-16T05:10:12;7.43;;;3.53;;
4742;SDS011;24293;48.154;7.748;2022-10-16T05:12:39;5.40;;;2.80;;
4742;SDS011;24293;48.154;7.748;2022-10-16T05:15:05;8.57;;;2.80;;
4742;SDS011;24293;48.154;7.748;2022-10-16T05:17:32;9.70;;;2.90;;
4742;SDS011;24293;48.154;7.748;2022-10-16T05:19:58;6.47;;;3.10;;
4742;SDS011;24293;48.154;7.748;2022-10-16T05:22:25;3.87;;;2.47;;
4742;SDS011;24293;48.154;7.748;2022-10-16T05:24:51;8.50;;;2.73;;
4742;SDS011;24293;48.154;7.748;2022-10-16T05:27:19;6.27;;;3.17;;
4742;SDS011;24293;48.154;7.748;2022-10-16T05:29:48;8.93;;;3.63;;
4742;SDS011;24293;48.154;7.748;2022-10-16T05:32:15;7.37;;;3.30;;
4742;SDS011;24293;48.154;7.748;2022-10-16T05:34:42;3.90;;;2.83;;
4742;SDS011;24293;48.154;7.748;2022-10-16T05:37:11;10.23;;;3.40;;
4742;SDS011;24293;48.154;7.748;2022-10-16T05:39:38;6.27;;;2.70;;
4742;SDS011;24293;48.154;7.748;2022-10-16T05:42:05;4.63;;;3.17;;
4742;SDS011;24293;48.154;7.748;2022-10-16T05:44:33;6.03;;;3.00;;
4742;SDS011;24293;48.154;7.748;2022-10-16T05:47:00;7.27;;;3.13;;
4742;SDS011;24293;48.154;7.748;2022-10-16T05:49:26;7.30;;;3.23;;
4742;SDS011;24293;48.154;7.748;2022-10-16T05:51:53;7.50;;;2.67;;
4742;SDS011;24293;48.154;7.748;2022-10-16T05:54:19;6.20;;;2.60;;
4742;SDS011;24293;48.154;7.748;2022-10-16T05:56:46;11.40;;;3.30;;
4742;SDS011;24293;48.154;7.748;2022-10-16T05:59:12;8.60;;;3.50;;
4742;SDS011;24293;48.154;7.748;2022-10-16T06:01:40;7.63;;;3.20;;
4742;SDS011;24293;48.154;7.748;2022-10-16T06:04:07;5.13;;;2.53;;
4742;SDS011;24293;48.154;7.748;2022-10-16T06:06:34;9.63;;;3.20;;
4742;SDS011;24293;48.154;7.748;2022-10-16T06:09:01;10.33;;;4.20;;
4742;SDS011;24293;48.154;7.748;2022-10-16T06:11:29;7.67;;;3.83;;
4742;SDS011;24293;48.154;7.748;2022-10-16T06:13:57;5.37;;;3.10;;
4742;SDS011;24293;48.154;7.748;2022-10-16T06:16:23;5.90;;;3.00;;
4742;SDS011;24293;48.154;7.748;2022-10-16T06:18:52;4.20;;;3.00;;
4742;SDS011;24293;48.154;7.748;2022-10-16T06:21:22;5.87;;;3.07;;
4742;SDS011;24293;48.154;7.748;2022-10-16T06:23:50;9.27;;;2.80;;
4742;SDS011;24293;48.154;7.748;2022-10-16T06:26:17;15.10;;;3.17;;
4742;SDS011;24293;48.154;7.748;2022-10-16T06:28:44;8.00;;;3.40;;
4742;SDS011;24293;48.154;7.748;2022-10-16T06:31:11;6.07;;;3.20;;
4742;SDS011;24293;48.154;7.748;2022-10-16T06:33:38;7.27;;;3.33;;
4742;SDS011;24293;48.154;7.748;2022-10-16T06:36:07;6.03;;;3.47;;
4742;SDS011;24293;48.154;7.748;2022-10-16T06:38:34;5.50;;;3.27;;
4742;SDS011;24293;48.154;7.748;2022-10-16T06:41:00;8.63;;;4.10;;
4742;SDS011;24293;48.154;7.748;2022-10-16T06:43:28;8.53;;;4.00;;
4742;SDS011;24293;48.154;7.748;2022-10-16T06:45:57;7.23;;;3.80;;
4742;SDS011;24293;48.154;7.748;2022-10-16T06:48:26;10.80;;;5.30;;
4742;SDS011;24293;48.154;7.748;2022-10-16T06:50:57;8.83;;;4.80;;
4742;SDS011;24293;48.154;7.748;2022-10-16T06:53:25;5.60;;;3.50;;
4742;SDS011;24293;48.154;7.748;2022-10-16T06:55:52;9.33;;;5.07;;
4742;SDS011;24293;48.154;7.748;2022-10-16T06:58:20;8.87;;;4.60;;
4742;SDS011;24293;48.154;7.748;2022-10-16T07:00:46;9.30;;;4.33;;
4742;SDS011;24293;48.154;7.748;2022-10-16T07:03:13;13.93;;;7.90;;
4742;SDS011;24293;48.154;7.748;2022-10-16T07:05:40;8.23;;;4.20;;
4742;SDS011;24293;48.154;7.748;2022-10-16T07:08:06;7.00;;;3.50;;
4742;SDS011;24293;48.154;7.748;2022-10-16T07:10:34;9.37;;;4.90;;
4742;SDS011;24293;48.154;7.748;2022-10-16T07:13:01;13.80;;;5.17;;
4742;SDS011;24293;48.154;7.748;2022-10-16T07:15:28;8.90;;;3.93;;
4742;SDS011;24293;48.154;7.748;2022-10-16T07:17:54;5.70;;;3.20;;
4742;SDS011;24293;48.154;7.748;2022-10-16T07:20:21;6.50;;;3.60;;
4742;SDS011;24293;48.154;7.748;2022-10-16T07:22:47;12.40;;;5.20;;
4742;SDS011;24293;48.154;7.748;2022-10-16T07:25:13;4.30;;;3.33;;
4742;SDS011;24293;48.154;7.748;2022-10-16T07:27:41;6.60;;;4.30;;
4742;SDS011;24293;48.154;7.748;2022-10-16T07:30:08;9.60;;;5.43;;
4742;SDS011;24293;48.154;7.748;2022-10-16T07:32:35;6.73;;;4.03;;
4742;SDS011;24293;48.154;7.748;2022-10-16T07:35:01;8.60;;;3.13;;
4742;SDS011;24293;48.154;7.748;2022-10-16T07:37:28;9.40;;;4.03;;
4742;SDS011;24293;48.154;7.748;2022-10-16T07:39:54;8.63;;;3.10;;
4742;SDS011;24293;48.154;7.748;2022-10-16T07:42:20;9.07;;;3.43;;
4742;SDS011;24293;48.154;7.748;2022-10-16T07:44:48;9.03;;;4.90;;
4742;SDS011;24293;48.154;7.748;2022-10-16T07:47:15;11.47;;;3.70;;
4742;SDS011;24293;48.154;7.748;2022-10-16T07:49:41;10.90;;;3.70;;
4742;SDS011;24293;48.154;7.748;2022-10-16T07:52:08;4.40;;;3.03;;
4742;SDS011;24293;48.154;7.748;2022-10-16T07:54:34;8.30;;;2.97;;
4742;SDS011;24293;48.154;7.748;2022-10-16T07:57:01;10.77;;;3.70;;
4742;SDS011;24293;48.154;7.748;2022-10-16T07:59:27;10.43;;;4.27;;
4742;SDS011;24293;48.154;7.748;2022-10-16T08:01:55;11.93;;;4.40;;
4742;SDS011;24293;48.154;7.748;2022-10-16T08:04:22;9.70;;;4.47;;
4742;SDS011;24293;48.154;7.748;2022-10-16T08:06:48;8.03;;;3.50;;
4742;SDS011;24293;48.154;7.748;2022-10-16T08:09:15;5.20;;;3.63;;
4742;SDS011;24293;48.154;7.748;2022-10-16T08:11:41;6.97;;;3.37;;
4742;SDS011;24293;48.154;7.748;2022-10-16T08:14:08;7.50;;;3.70;;
4742;SDS011;24293;48.154;7.748;2022-10-16T08:16:34;6.70;;;4.40;;
4742;SDS011;24293;48.154;7.748;2022-10-16T08:19:02;8.27;;;5.03;;
4742;SDS011;24293;48.154;7.748;2022-10-16T08:21:28;14.77;;;9.83;;
4742;SDS011;24293;48.154;7.748;2022-10-16T08:23:55;19.20;;;9.87;;
4742;SDS011;24293;48.154;7.748;2022-10-16T08:26:21;4.60;;;2.80;;
4742;SDS011;24293;48.154;7.748;2022-10-16T08:28:49;4.00;;;2.80;;
4742;SDS011;24293;48.154;7.748;2022-10-16T08:31:15;4.80;;;2.93;;
4742;SDS011;24293;48.154;7.748;2022-10-16T08:33:43;5.77;;;2.23;;
4742;SDS011;24293;48.154;7.748;2022-10-16T08:36:12;12.87;;;6.07;;
4742;SDS011;24293;48.154;7.748;2022-10-16T08:38:38;12.23;;;8.20;;
4742;SDS011;24293;48.154;7.748;2022-10-16T08:41:13;9.83;;;3.90;;
4742;SDS011;24293;48.154;7.748;2022-10-16T08:43:51;3.50;;;2.30;;
4742;SDS011;24293;48.154;7.748;2022-10-16T08:46:24;3.80;;;2.50;;
4742;SDS011;24293;48.154;7.748;2022-10-16T08:48:54;5.77;;;3.60;;
4742;SDS011;24293;48.154;7.748;2022-10-16T08:51:24;6.30;;;2.93;;
4742;SDS011;24293;48.154;7.748;2022-10-16T08:53:52;7.27;;;2.37;;
4742;SDS011;24293;48.154;7.748;2022-10-16T08:56:20;5.40;;;3.07;;
4742;SDS011;24293;48.154;7.748;2022-10-16T08:58:46;7.07;;;3.33;;
4742;SDS011;24293;48.154;7.748;2022-10-16T09:01:14;10.60;;;5.27;;
4742;SDS011;24293;48.154;7.748;2022-10-16T09:03:48;12.63;;;4.20;;
4742;SDS011;24293;48.154;7.748;2022-10-16T09:09:06;13.90;;;3.00;;
4742;SDS011;24293;48.154;7.748;2022-10-16T09:11:41;5.13;;;3.13;;
4742;SDS011;24293;48.154;7.748;2022-10-16T09:14:15;9.57;;;3.00;;
4742;SDS011;24293;48.154;7.748;2022-10-16T09:16:46;19.70;;;4.73;;
4742;SDS011;24293;48.154;7.748;2022-10-16T09:19:15;7.33;;;4.37;;
4742;SDS011;24293;48.154;7.748;2022-10-16T09:21:44;6.70;;;4.30;;
4742;SDS011;24293;48.154;7.748;2022-10-16T09:24:15;4.87;;;3.20;;
4742;SDS011;24293;48.154;7.748;2022-10-16T09:26:42;10.90;;;5.27;;
4742;SDS011;24293;48.154;7.748;2022-10-16T09:29:09;6.33;;;3.60;;
4742;SDS011;24293;48.154;7.748;2022-10-16T09:31:36;4.57;;;2.30;;
4742;SDS011;24293;48.154;7.748;2022-10-16T09:34:02;6.03;;;2.40;;
4742;SDS011;24293;48.154;7.748;2022-10-16T09:36:32;6.37;;;2.27;;
4742;SDS011;24293;48.154;7.748;2022-10-16T09:39:04;9.00;;;4.57;;
4742;SDS011;24293;48.154;7.748;2022-10-16T09:41:33;8.63;;;4.30;;
4742;SDS011;24293;48.154;7.748;2022-10-16T09:44:02;10.87;;;4.17;;
4742;SDS011;24293;48.154;7.748;2022-10-16T09:46:30;11.57;;;5.40;;
4742;SDS011;24293;48.154;7.748;2022-10-16T09:48:57;8.67;;;3.90;;
4742;SDS011;24293;48.154;7.748;2022-10-16T09:51:25;6.43;;;2.43;;
4742;SDS011;24293;48.154;7.748;2022-10-16T09:53:54;3.37;;;1.50;;
4742;SDS011;24293;48.154;7.748;2022-10-16T09:56:21;3.53;;;2.17;;
4742;SDS011;24293;48.154;7.748;2022-10-16T09:58:50;2.80;;;1.63;;
4742;SDS011;24293;48.154;7.748;2022-10-16T10:01:17;4.53;;;1.50;;
4742;SDS011;24293;48.154;7.748;2022-10-16T10:03:45;5.30;;;3.40;;
4742;SDS011;24293;48.154;7.748;2022-10-16T10:06:17;5.33;;;2.13;;
4742;SDS011;24293;48.154;7.748;2022-10-16T10:08:53;5.47;;;1.77;;
4742;SDS011;24293;48.154;7.748;2022-10-16T10:14:06;4.27;;;1.60;;
4742;SDS011;24293;48.154;7.748;2022-10-16T10:16:33;4.13;;;2.07;;
4742;SDS011;24293;48.154;7.748;2022-10-16T10:18:59;3.97;;;1.83;;
4742;SDS011;24293;48.154;7.748;2022-10-16T10:21:26;2.20;;;1.50;;
4742;SDS011;24293;48.154;7.748;2022-10-16T10:23:54;3.57;;;2.57;;
4742;SDS011;24293;48.154;7.748;2022-10-16T10:26:22;3.63;;;2.00;;
4742;SDS011;24293;48.154;7.748;2022-10-16T10:28:52;3.30;;;1.53;;
4742;SDS011;24293;48.154;7.748;2022-10-16T10:31:24;4.77;;;1.87;;
4742;SDS011;24293;48.154;7.748;2022-10-16T10:33:54;4.77;;;1.53;;
4742;SDS011;24293;48.154;7.748;2022-10-16T10:36:25;10.17;;;4.50;;
4742;SDS011;24293;48.154;7.748;2022-10-16T10:38:54;6.63;;;2.23;;
4742;SDS011;24293;48.154;7.748;2022-10-16T10:44:08;5.07;;;2.13;;
4742;SDS011;24293;48.154;7.748;2022-10-16T10:46:41;3.03;;;2.10;;
4742;SDS011;24293;48.154;7.748;2022-10-16T10:49:17;4.33;;;1.50;;
4742;SDS011;24293;48.154;7.748;2022-10-16T10:51:49;2.13;;;1.47;;
4742;SDS011;24293;48.154;7.748;2022-10-16T10:54:20;5.70;;;3.00;;
4742;SDS011;24293;48.154;7.748;2022-10-16T10:56:50;3.27;;;1.60;;
4742;SDS011;24293;48.154;7.748;2022-10-16T10:59:30;2.93;;;1.60;;
4742;SDS011;24293;48.154;7.748;2022-10-16T11:02:00;4.10;;;1.97;;
4742;SDS011;24293;48.154;7.748;2022-10-16T11:04:41;4.63;;;1.70;;
4742;SDS011;24293;48.154;7.748;2022-10-16T11:07:14;2.93;;;1.50;;
4742;SDS011;24293;48.154;7.748;2022-10-16T11:09:42;2.97;;;1.50;;
4742;SDS011;24293;48.154;7.748;2022-10-16T11:12:11;3.30;;;1.70;;
4742;SDS011;24293;48.154;7.748;2022-10-16T11:14:42;3.30;;;1.90;;
4742;SDS011;24293;48.154;7.748;2022-10-16T11:17:11;4.90;;;1.83;;
4742;SDS011;24293;48.154;7.748;2022-10-16T11:19:41;4.77;;;1.43;;
4742;SDS011;24293;48.154;7.748;2022-10-16T11:22:11;3.40;;;1.50;;
4742;SDS011;24293;48.154;7.748;2022-10-16T11:24:40;2.50;;;1.30;;
4742;SDS011;24293;48.154;7.748;2022-10-16T11:27:09;2.93;;;1.50;;
4742;SDS011;24293;48.154;7.748;2022-10-16T11:29:40;7.30;;;1.63;;
4742;SDS011;24293;48.154;7.748;2022-10-16T11:32:14;1.83;;;1.20;;
4742;SDS011;24293;48.154;7.748;2022-10-16T11:34:44;3.03;;;1.70;;
4742;SDS011;24293;48.154;7.748;2022-10-16T11:37:14;3.97;;;1.30;;
4742;SDS011;24293;48.154;7.748;2022-10-16T11:39:43;7.43;;;1.20;;
4742;SDS011;24293;48.154;7.748;2022-10-16T11:42:10;1.63;;;1.07;;
4742;SDS011;24293;48.154;7.748;2022-10-16T11:44:41;1.73;;;1.20;;
4742;SDS011;24293;48.154;7.748;2022-10-16T11:47:16;5.17;;;1.20;;
4742;SDS011;24293;48.154;7.748;2022-10-16T11:49:45;3.43;;;1.70;;
4742;SDS011;24293;48.154;7.748;2022-10-16T11:52:15;1.60;;;1.13;;
4742;SDS011;24293;48.154;7.748;2022-10-16T11:54:44;1.93;;;1.20;;
4742;SDS011;24293;48.154;7.748;2022-10-16T11:57:12;5.13;;;1.40;;
4742;SDS011;24293;48.154;7.748;2022-10-16T11:59:42;2.60;;;1.30;;
4742;SDS011;24293;48.154;7.748;2022-10-16T12:02:20;4.27;;;1.97;;
4742;SDS011;24293;48.154;7.748;2022-10-16T12:04:50;7.37;;;1.90;;
4742;SDS011;24293;48.154;7.748;2022-10-16T12:07:22;2.33;;;1.33;;
4742;SDS011;24293;48.154;7.748;2022-10-16T12:09:49;2.40;;;1.60;;
4742;SDS011;24293;48.154;7.748;2022-10-16T12:15:00;3.67;;;1.60;;
4742;SDS011;24293;48.154;7.748;2022-10-16T12:17:34;3.23;;;1.27;;
4742;SDS011;24293;48.154;7.748;2022-10-16T12:20:12;2.37;;;1.20;;
4742;SDS011;24293;48.154;7.748;2022-10-16T12:22:41;5.50;;;1.70;;
4742;SDS011;24293;48.154;7.748;2022-10-16T12:25:19;3.67;;;1.67;;
4742;SDS011;24293;48.154;7.748;2022-10-16T12:27:52;5.90;;;1.60;;
4742;SDS011;24293;48.154;7.748;2022-10-16T12:30:20;4.53;;;1.80;;
4742;SDS011;24293;48.154;7.748;2022-10-16T12:32:54;6.43;;;1.47;;
4742;SDS011;24293;48.154;7.748;2022-10-16T12:35:21;5.63;;;1.50;;
4742;SDS011;24293;48.154;7.748;2022-10-16T12:37:49;3.53;;;1.33;;
4742;SDS011;24293;48.154;7.748;2022-10-16T12:40:22;2.03;;;1.37;;
4742;SDS011;24293;48.154;7.748;2022-10-16T12:42:50;3.43;;;1.60;;
4742;SDS011;24293;48.154;7.748;2022-10-16T12:45:27;2.93;;;1.47;;
4742;SDS011;24293;48.154;7.748;2022-10-16T12:47:56;2.33;;;1.20;;
4742;SDS011;24293;48.154;7.748;2022-10-16T12:50:23;4.13;;;1.47;;
4742;SDS011;24293;48.154;7.748;2022-10-16T12:52:50;2.13;;;1.33;;
4742;SDS011;24293;48.154;7.748;2022-10-16T12:55:17;4.80;;;1.57;;
4742;SDS011;24293;48.154;7.748;2022-10-16T12:57:47;1.70;;;1.30;;
4742;SDS011;24293;48.154;7.748;2022-10-16T13:00:20;7.53;;;1.50;;
4742;SDS011;24293;48.154;7.748;2022-10-16T13:02:50;3.23;;;1.47;;
4742;SDS011;24293;48.154;7.748;2022-10-16T13:05:23;3.00;;;1.60;;
4742;SDS011;24293;48.154;7.748;2022-10-16T13:07:57;4.40;;;1.60;;
4742;SDS011;24293;48.154;7.748;2022-10-16T13:10:28;3.40;;;1.83;;
4742;SDS011;24293;48.154;7.748;2022-10-16T13:13:05;8.10;;;1.40;;
4742;SDS011;24293;48.154;7.748;2022-10-16T13:15:37;2.87;;;1.70;;
4742;SDS011;24293;48.154;7.748;2022-10-16T13:18:06;11.30;;;2.07;;
4742;SDS011;24293;48.154;7.748;2022-10-16T13:20:41;4.03;;;1.30;;
4742;SDS011;24293;48.154;7.748;2022-10-16T13:23:13;3.50;;;1.40;;
4742;SDS011;24293;48.154;7.748;2022-10-16T13:25:45;2.20;;;1.40;;
4742;SDS011;24293;48.154;7.748;2022-10-16T13:28:17;8.60;;;1.40;;
4742;SDS011;24293;48.154;7.748;2022-10-16T13:30:50;2.23;;;1.60;;
4742;SDS011;24293;48.154;7.748;2022-10-16T13:33:18;2.00;;;1.20;;
4742;SDS011;24293;48.154;7.748;2022-10-16T13:35:50;4.17;;;1.30;;
4742;SDS011;24293;48.154;7.748;2022-10-16T13:38:19;1.90;;;1.60;;
4742;SDS011;24293;48.154;7.748;2022-10-16T13:40:52;4.10;;;1.40;;
4742;SDS011;24293;48.154;7.748;2022-10-16T13:43:20;2.43;;;1.00;;
4742;SDS011;24293;48.154;7.748;2022-10-16T13:45:55;4.57;;;1.50;;
4742;SDS011;24293;48.154;7.748;2022-10-16T13:48:22;3.33;;;1.40;;
4742;SDS011;24293;48.154;7.748;2022-10-16T13:50:59;2.40;;;1.53;;
4742;SDS011;24293;48.154;7.748;2022-10-16T13:53:26;1.90;;;1.27;;
4742;SDS011;24293;48.154;7.748;2022-10-16T13:55:52;3.23;;;1.20;;
4742;SDS011;24293;48.154;7.748;2022-10-16T13:58:19;5.47;;;1.43;;
4742;SDS011;24293;48.154;7.748;2022-10-16T14:00:53;7.23;;;1.73;;
4742;SDS011;24293;48.154;7.748;2022-10-16T14:03:19;9.50;;;1.23;;
4742;SDS011;24293;48.154;7.748;2022-10-16T14:05:46;4.20;;;1.40;;
4742;SDS011;24293;48.154;7.748;2022-10-16T14:08:15;2.67;;;1.57;;
4742;SDS011;24293;48.154;7.748;2022-10-16T14:10:41;6.50;;;1.47;;
4742;SDS011;24293;48.154;7.748;2022-10-16T14:13:13;2.97;;;1.27;;
4742;SDS011;24293;48.154;7.748;2022-10-16T14:15:45;5.03;;;1.20;;
4742;SDS011;24293;48.154;7.748;2022-10-16T14:18:13;5.70;;;1.80;;
4742;SDS011;24293;48.154;7.748;2022-10-16T14:20:43;4.17;;;1.30;;
4742;SDS011;24293;48.154;7.748;2022-10-16T14:23:21;3.50;;;2.10;;
4742;SDS011;24293;48.154;7.748;2022-10-16T14:25:48;3.27;;;2.57;;
4742;SDS011;24293;48.154;7.748;2022-10-16T14:28:15;3.60;;;1.60;;
4742;SDS011;24293;48.154;7.748;2022-10-16T14:30:49;1.80;;;1.20;;
4742;SDS011;24293;48.154;7.748;2022-10-16T14:33:23;6.33;;;1.73;;
4742;SDS011;24293;48.154;7.748;2022-10-16T14:35:59;1.67;;;1.27;;
4742;SDS011;24293;48.154;7.748;2022-10-16T14:38:27;4.03;;;2.70;;
4742;SDS011;24293;48.154;7.748;2022-10-16T14:40:54;3.10;;;1.57;;
4742;SDS011;24293;48.154;7.748;2022-10-16T14:43:25;4.93;;;2.90;;
4742;SDS011;24293;48.154;7.748;2022-10-16T14:45:54;4.27;;;1.40;;
4742;SDS011;24293;48.154;7.748;2022-10-16T14:48:21;3.07;;;1.37;;
4742;SDS011;24293;48.154;7.748;2022-10-16T14:50:47;2.50;;;1.10;;
4742;SDS011;24293;48.154;7.748;2022-10-16T14:53:14;1.70;;;1.23;;
4742;SDS011;24293;48.154;7.748;2022-10-16T14:55:42;2.53;;;1.53;;
4742;SDS011;24293;48.154;7.748;2022-10-16T14:58:09;2.43;;;1.50;;
4742;SDS011;24293;48.154;7.748;2022-10-16T15:00:39;3.27;;;1.60;;
4742;SDS011;24293;48.154;7.748;2022-10-16T15:03:06;2.13;;;1.13;;
4742;SDS011;24293;48.154;7.748;2022-10-16T15:05:32;6.10;;;1.57;;
4742;SDS011;24293;48.154;7.748;2022-10-16T15:07:59;2.30;;;1.73;;
4742;SDS011;24293;48.154;7.748;2022-10-16T15:10:25;5.23;;;1.43;;
4742;SDS011;24293;48.154;7.748;2022-10-16T15:12:54;4.03;;;1.70;;
4742;SDS011;24293;48.154;7.748;2022-10-16T15:15:25;1.67;;;1.30;;
4742;SDS011;24293;48.154;7.748;2022-10-16T15:17:54;2.67;;;1.40;;
4742;SDS011;24293;48.154;7.748;2022-10-16T15:20:22;5.23;;;1.63;;